Time;durP1;ratioP1;P1;durP2;ratioP2;P2;SDS_P1;SDS_P2;PMS_P1;PMS_P2;Temp;Humidity;BMP_temperature;BMP_pressure;BME280_temperature;BME280_humidity;BME280_pressure;Samples;Min_cycle;Max_cycle;Signal;HPM_P1;HPM_P2
2023/08/04 00:00:10;;;;;;;;;;;16.30;89.70;;;;;;4994078;28;19924;-87
2023/08/04 00:02:36;;;;;;;;;;;16.30;89.60;;;;;;4990715;28;19914;-87
2023/08/04 00:05:02;;;;;;;;;;;16.20;89.50;;;;;;4991353;28;19957;-88
2023/08/04 00:07:27;;;;;;;;;;;16.20;89.60;;;;;;4995101;28;20020;-88
2023/08/04 00:09:53;;;;;;;;;;;16.20;89.60;;;;;;4992893;28;20369;-87
2023/08/04 00:12:18;;;;;;;;;;;16.30;89.50;;;;;;4995313;28;19910;-88
2023/08/04 00:14:45;;;;;;;;;;;16.30;89.50;;;;;;5002910;28;19944;-87
2023/08/04 00:17:11;;;;;;;;;;;16.30;89.30;;;;;;4997904;28;19944;-87
2023/08/04 00:19:36;;;;;;;;;;;16.30;89.60;;;;;;5002694;28;20022;-87
2023/08/04 00:22:02;;;;;;;;;;;16.40;88.90;;;;;;4999985;28;19913;-87
2023/08/04 00:24:27;;;;;;;;;;;16.30;89.20;;;;;;5000406;28;20381;-87
2023/08/04 00:26:53;;;;;;;;;;;16.30;89.40;;;;;;5004609;28;19906;-88
2023/08/04 00:29:18;;;;;;;;;;;16.30;89.30;;;;;;5012271;28;19946;-87
2023/08/04 00:31:44;;;;;;;;;;;16.30;89.40;;;;;;5016908;28;19976;-87
2023/08/04 00:34:09;;;;;;;;;;;16.30;89.40;;;;;;5008339;28;19920;-87
2023/08/04 00:36:35;;;;;;;;;;;16.20;89.50;;;;;;4986797;28;19910;-87
2023/08/04 00:39:00;;;;;;;;;;;16.30;89.80;;;;;;4987918;28;20008;-87
2023/08/04 00:41:26;;;;;;;;;;;16.20;89.90;;;;;;4991186;28;19941;-87
2023/08/04 00:43:51;;;;;;;;;;;16.30;89.80;;;;;;4993851;28;20448;-86
2023/08/04 00:46:17;;;;;;;;;;;16.30;89.70;;;;;;4993938;28;19913;-86
2023/08/04 00:48:42;;;;;;;;;;;16.30;89.50;;;;;;4993884;28;19918;-86
2023/08/04 00:51:08;;;;;;;;;;;16.30;89.60;;;;;;4991079;28;20005;-86
2023/08/04 00:53:33;;;;;;;;;;;16.30;89.70;;;;;;4991381;28;19914;-86
2023/08/04 00:55:59;;;;;;;;;;;16.30;89.80;;;;;;4993479;28;19914;-87
2023/08/04 00:58:25;;;;;;;;;;;16.30;89.90;;;;;;4994251;28;20396;-86
2023/08/04 01:00:50;;;;;;;;;;;16.30;90.00;;;;;;4991614;28;20285;-87
2023/08/04 01:03:16;;;;;;;;;;;16.30;89.90;;;;;;4993546;28;20416;-86
2023/08/04 01:05:54;;;;;;;;;;;16.40;89.80;;;;;;4999492;28;20017;-88
2023/08/04 01:08:25;;;;;;;;;;;16.30;89.60;;;;;;4990691;28;19960;-87
2023/08/04 01:11:12;;;;;;;;;;;16.30;90.00;;;;;;4984805;28;19909;-87
2023/08/04 01:13:39;;;;;;;;;;;16.30;90.00;;;;;;4991330;28;21535;-87
2023/08/04 01:16:05;;;;;;;;;;;16.30;89.80;;;;;;4994563;28;19909;-86
2023/08/04 01:21:40;;;;;;;;;;;16.30;90.00;;;;;;4988896;28;19940;-87
2023/08/04 01:24:06;;;;;;;;;;;16.30;90.30;;;;;;4993629;28;19913;-87
2023/08/04 01:26:34;;;;;;;;;;;16.40;90.30;;;;;;4991862;28;19913;-87
2023/08/04 01:29:00;;;;;;;;;;;16.30;89.80;;;;;;4991277;28;20007;-86
2023/08/04 01:31:25;;;;;;;;;;;16.30;90.10;;;;;;4993908;28;19965;-86
2023/08/04 01:33:51;;;;;;;;;;;16.30;90.10;;;;;;4994381;28;19956;-87
2023/08/04 01:36:16;;;;;;;;;;;16.30;90.20;;;;;;4989112;28;19917;-87
2023/08/04 01:38:42;;;;;;;;;;;16.40;90.20;;;;;;4981077;28;19925;-87
2023/08/04 01:41:07;;;;;;;;;;;16.30;90.00;;;;;;4986106;28;19914;-87
2023/08/04 01:43:33;;;;;;;;;;;16.30;89.80;;;;;;4976985;28;19921;-88
2023/08/04 01:45:58;;;;;;;;;;;16.30;90.00;;;;;;4977141;28;19925;-88
2023/08/04 01:48:24;;;;;;;;;;;16.30;89.80;;;;;;4988902;28;20004;-87
2023/08/04 01:50:50;;;;;;;;;;;16.30;90.00;;;;;;4975563;28;19918;-88
2023/08/04 01:53:15;;;;;;;;;;;16.30;89.90;;;;;;4974197;28;19917;-87
2023/08/04 01:55:41;;;;;;;;;;;16.30;89.60;;;;;;4982816;28;19921;-87
2023/08/04 01:58:06;;;;;;;;;;;16.30;89.80;;;;;;4995357;28;19918;-87
2023/08/04 02:00:32;;;;;;;;;;;16.30;90.00;;;;;;5010423;28;20348;-88
2023/08/04 02:02:57;;;;;;;;;;;16.30;89.80;;;;;;4995277;28;19921;-88
2023/08/04 02:05:23;;;;;;;;;;;16.20;89.90;;;;;;4985584;28;19921;-86
2023/08/04 02:07:48;;;;;;;;;;;16.30;89.70;;;;;;4989177;28;19917;-87
2023/08/04 02:10:14;;;;;;;;;;;16.40;90.00;;;;;;4990695;28;20298;-87
2023/08/04 02:12:41;;;;;;;;;;;16.30;90.00;;;;;;5003607;28;19910;-86
2023/08/04 02:15:06;;;;;;;;;;;16.30;89.60;;;;;;4999835;28;19922;-87
2023/08/04 02:17:33;;;;;;;;;;;16.40;89.90;;;;;;4990898;28;19994;-86
2023/08/04 02:19:58;;;;;;;;;;;16.30;89.70;;;;;;4993720;28;19914;-87
2023/08/04 02:22:24;;;;;;;;;;;16.40;89.70;;;;;;4977096;28;19911;-87
2023/08/04 02:24:49;;;;;;;;;;;16.30;89.80;;;;;;4996242;28;19910;-86
2023/08/04 02:27:15;;;;;;;;;;;16.20;90.10;;;;;;4994712;28;19914;-85
2023/08/04 02:29:40;;;;;;;;;;;16.20;89.90;;;;;;4990211;28;19918;-86
2023/08/04 02:32:06;;;;;;;;;;;16.20;90.00;;;;;;4988953;28;19932;-87
2023/08/04 02:34:31;;;;;;;;;;;16.20;89.90;;;;;;4985714;28;19921;-85
2023/08/04 02:36:57;;;;;;;;;;;16.20;89.90;;;;;;4979171;28;19999;-87
2023/08/04 02:39:22;;;;;;;;;;;16.20;89.70;;;;;;4995407;28;20369;-86
2023/08/04 02:41:48;;;;;;;;;;;16.10;89.60;;;;;;4992866;28;19922;-86
2023/08/04 02:44:13;;;;;;;;;;;16.10;89.70;;;;;;4991854;28;19914;-86
2023/08/04 02:46:38;;;;;;;;;;;16.00;90.20;;;;;;4991941;28;20309;-87
2023/08/04 02:49:04;;;;;;;;;;;16.00;90.20;;;;;;4994159;28;19960;-87
2023/08/04 02:51:29;;;;;;;;;;;16.10;90.40;;;;;;4995589;28;20515;-87
2023/08/04 02:53:55;;;;;;;;;;;16.10;90.20;;;;;;4983909;28;19910;-86
2023/08/04 02:56:20;;;;;;;;;;;16.10;90.40;;;;;;4977157;28;19910;-87
2023/08/04 02:58:47;;;;;;;;;;;16.10;90.30;;;;;;4987397;28;20844;-87
2023/08/04 03:01:12;;;;;;;;;;;16.10;90.40;;;;;;4984913;28;19910;-87
2023/08/04 03:03:38;;;;;;;;;;;16.10;90.10;;;;;;4984330;28;19929;-86
2023/08/04 03:06:04;;;;;;;;;;;16.00;90.40;;;;;;4983207;28;19910;-87
2023/08/04 03:08:31;;;;;;;;;;;16.10;90.40;;;;;;4996385;28;19914;-87
2023/08/04 03:10:56;;;;;;;;;;;16.00;90.30;;;;;;4993433;28;19995;-87
2023/08/04 03:13:22;;;;;;;;;;;16.00;90.20;;;;;;4995616;28;20492;-87
2023/08/04 03:15:53;;;;;;;;;;;16.00;90.30;;;;;;4991603;28;19992;-86
2023/08/04 03:18:18;;;;;;;;;;;16.00;90.10;;;;;;4988153;28;19925;-86
2023/08/04 03:20:44;;;;;;;;;;;16.00;90.40;;;;;;4985065;28;19918;-87
2023/08/04 03:23:09;;;;;;;;;;;16.00;90.50;;;;;;4979222;28;19997;-87
2023/08/04 03:25:35;;;;;;;;;;;16.00;90.70;;;;;;4985390;28;19918;-88
2023/08/04 03:28:00;;;;;;;;;;;16.00;90.50;;;;;;4985975;28;20278;-87
2023/08/04 03:30:26;;;;;;;;;;;16.00;90.40;;;;;;4995863;28;19998;-87
2023/08/04 03:32:52;;;;;;;;;;;16.00;90.50;;;;;;4990565;28;20403;-86
2023/08/04 03:35:17;;;;;;;;;;;16.00;90.40;;;;;;4994738;28;19914;-86
2023/08/04 03:37:43;;;;;;;;;;;15.90;90.50;;;;;;4985340;28;19969;-87
2023/08/04 03:40:08;;;;;;;;;;;15.90;90.60;;;;;;4994486;28;20012;-86
2023/08/04 03:42:38;;;;;;;;;;;15.90;90.50;;;;;;5000277;28;19914;-87
2023/08/04 03:45:07;;;;;;;;;;;15.80;90.60;;;;;;5012263;28;19958;-88
2023/08/04 03:47:33;;;;;;;;;;;15.90;90.30;;;;;;5013704;28;19925;-88
2023/08/04 03:49:58;;;;;;;;;;;16.00;90.20;;;;;;5007582;28;19926;-86
2023/08/04 03:52:23;;;;;;;;;;;15.90;89.90;;;;;;4988020;28;19936;-87
2023/08/04 03:54:49;;;;;;;;;;;15.90;90.30;;;;;;4988880;28;20009;-87
2023/08/04 03:57:14;;;;;;;;;;;15.80;90.40;;;;;;4994267;28;20010;-87
2023/08/04 03:59:40;;;;;;;;;;;15.90;90.30;;;;;;4994130;28;20285;-87
2023/08/04 04:02:06;;;;;;;;;;;15.80;90.30;;;;;;4988138;28;19918;-88
2023/08/04 04:04:31;;;;;;;;;;;15.80;90.40;;;;;;4990627;28;19933;-87
2023/08/04 04:06:57;;;;;;;;;;;15.90;90.60;;;;;;4995107;28;19913;-88
2023/08/04 04:09:22;;;;;;;;;;;15.90;90.40;;;;;;4993547;28;19918;-87
2023/08/04 04:11:47;;;;;;;;;;;15.90;90.40;;;;;;4984502;28;19914;-88
2023/08/04 04:14:13;;;;;;;;;;;15.90;90.20;;;;;;4980761;28;19962;-87
2023/08/04 04:16:38;;;;;;;;;;;16.00;90.10;;;;;;4988912;28;20366;-86
2023/08/04 04:19:04;;;;;;;;;;;15.90;90.40;;;;;;4992138;28;19914;-86
2023/08/04 04:21:29;;;;;;;;;;;15.90;90.30;;;;;;4992426;28;19918;-86
2023/08/04 04:23:55;;;;;;;;;;;15.90;90.50;;;;;;4995867;28;20293;-85
2023/08/04 04:26:20;;;;;;;;;;;15.90;90.40;;;;;;4991890;28;19953;-86
2023/08/04 04:28:46;;;;;;;;;;;15.90;90.60;;;;;;4994913;28;19926;-86
2023/08/04 04:31:11;;;;;;;;;;;15.90;90.20;;;;;;4984398;28;19976;-85
2023/08/04 04:33:37;;;;;;;;;;;15.90;90.30;;;;;;4992561;28;19914;-86
2023/08/04 04:36:02;;;;;;;;;;;16.00;90.10;;;;;;4994940;28;19913;-86
2023/08/04 04:38:28;;;;;;;;;;;16.00;89.90;;;;;;4993592;28;19914;-85
2023/08/04 04:40:54;;;;;;;;;;;16.00;90.00;;;;;;4995519;28;20246;-85
2023/08/04 04:43:20;;;;;;;;;;;16.00;90.10;;;;;;4982814;28;19915;-85
2023/08/04 04:45:49;;;;;;;;;;;16.00;90.30;;;;;;4987355;28;19914;-85
2023/08/04 04:48:14;;;;;;;;;;;16.00;90.10;;;;;;4992515;28;19921;-85
2023/08/04 04:50:40;;;;;;;;;;;16.00;90.10;;;;;;4988513;28;19922;-86
2023/08/04 04:53:05;;;;;;;;;;;16.10;90.30;;;;;;4981536;28;19914;-86
2023/08/04 04:55:31;;;;;;;;;;;16.10;90.10;;;;;;4975046;28;19918;-85
2023/08/04 04:57:56;;;;;;;;;;;16.10;89.90;;;;;;4981528;28;20371;-84
2023/08/04 05:00:24;;;;;;;;;;;16.10;89.80;;;;;;4989223;28;20413;-85
2023/08/04 05:02:50;;;;;;;;;;;16.10;89.70;;;;;;4995388;28;19937;-85
2023/08/04 05:05:15;;;;;;;;;;;16.10;89.80;;;;;;4994683;28;19914;-85
2023/08/04 05:07:41;;;;;;;;;;;16.20;89.50;;;;;;4994070;28;20370;-86
2023/08/04 05:10:07;;;;;;;;;;;16.20;89.70;;;;;;4993794;28;19971;-86
2023/08/04 05:12:33;;;;;;;;;;;16.20;90.00;;;;;;4997631;28;20187;-85
2023/08/04 05:14:58;;;;;;;;;;;16.20;90.10;;;;;;4989957;28;19917;-86
2023/08/04 05:17:24;;;;;;;;;;;16.20;90.00;;;;;;4995791;28;19910;-85
2023/08/04 05:19:49;;;;;;;;;;;16.30;89.90;;;;;;4981988;28;19914;-85
2023/08/04 05:22:15;;;;;;;;;;;16.30;90.00;;;;;;4995800;28;19910;-85
2023/08/04 05:24:40;;;;;;;;;;;16.40;89.60;;;;;;4992086;28;19914;-86
2023/08/04 05:27:06;;;;;;;;;;;16.50;89.40;;;;;;4979863;28;19914;-85
2023/08/04 05:29:31;;;;;;;;;;;16.50;89.20;;;;;;4978489;28;19914;-85
2023/08/04 05:31:57;;;;;;;;;;;16.50;89.40;;;;;;5009373;28;19921;-86
2023/08/04 05:34:22;;;;;;;;;;;16.50;89.40;;;;;;5011883;28;19909;-86
2023/08/04 05:36:48;;;;;;;;;;;16.60;89.00;;;;;;5005765;28;19921;-86
2023/08/04 05:39:13;;;;;;;;;;;16.50;88.70;;;;;;4994487;28;19910;-87
2023/08/04 05:41:39;;;;;;;;;;;16.60;89.10;;;;;;4991805;28;19921;-86
2023/08/04 05:44:04;;;;;;;;;;;16.60;89.10;;;;;;4978420;28;20382;-86
2023/08/04 05:46:30;;;;;;;;;;;16.60;89.00;;;;;;4993485;28;19913;-87
2023/08/04 05:48:55;;;;;;;;;;;16.60;88.90;;;;;;4987375;28;19960;-85
2023/08/04 05:51:21;;;;;;;;;;;16.60;88.90;;;;;;4979725;28;19984;-84
2023/08/04 05:53:48;;;;;;;;;;;16.60;88.90;;;;;;4988527;28;20414;-84
2023/08/04 05:56:13;;;;;;;;;;;16.60;89.00;;;;;;4998618;23;19957;-86
2023/08/04 05:58:39;;;;;;;;;;;16.60;88.90;;;;;;4991730;28;20540;-85
2023/08/04 06:01:06;;;;;;;;;;;16.50;89.10;;;;;;4994773;28;19914;-86
2023/08/04 06:03:32;;;;;;;;;;;16.60;89.30;;;;;;4993174;28;19921;-84
2023/08/04 06:05:57;;;;;;;;;;;16.60;89.20;;;;;;4994523;28;19914;-85
2023/08/04 06:08:22;;;;;;;;;;;16.70;89.10;;;;;;4993116;28;20013;-85
2023/08/04 06:10:48;;;;;;;;;;;16.70;88.60;;;;;;4989978;28;20385;-84
2023/08/04 06:13:14;;;;;;;;;;;16.70;88.40;;;;;;4993289;28;20019;-84
2023/08/04 06:15:39;;;;;;;;;;;16.60;88.80;;;;;;4988617;28;19917;-83
2023/08/04 06:18:05;;;;;;;;;;;16.60;88.70;;;;;;4989743;28;19914;-83
2023/08/04 06:20:31;;;;;;;;;;;16.60;88.90;;;;;;4993895;28;19914;-83
2023/08/04 06:22:57;;;;;;;;;;;16.60;89.00;;;;;;4981945;28;19980;-84
2023/08/04 06:25:22;;;;;;;;;;;16.60;89.20;;;;;;4991817;28;20385;-83
2023/08/04 06:27:49;;;;;;;;;;;16.60;89.20;;;;;;4991139;28;19918;-84
2023/08/04 06:30:15;;;;;;;;;;;16.80;89.00;;;;;;4994218;28;19929;-84
2023/08/04 06:32:41;;;;;;;;;;;17.00;88.50;;;;;;4986116;28;19918;-85
2023/08/04 06:35:07;;;;;;;;;;;17.10;88.90;;;;;;4993605;28;19933;-83
2023/08/04 06:37:32;;;;;;;;;;;17.20;88.00;;;;;;4995325;28;19965;-84
2023/08/04 06:39:58;;;;;;;;;;;17.30;87.60;;;;;;4978524;28;19957;-83
2023/08/04 06:42:23;;;;;;;;;;;17.40;87.40;;;;;;4990887;28;19926;-83
2023/08/04 06:44:49;;;;;;;;;;;17.50;87.20;;;;;;4989246;28;20032;-83
2023/08/04 06:47:14;;;;;;;;;;;17.50;86.90;;;;;;4987688;28;19918;-83
2023/08/04 06:49:40;;;;;;;;;;;17.40;86.80;;;;;;4985558;28;19996;-83
2023/08/04 06:52:06;;;;;;;;;;;17.50;86.30;;;;;;4987942;28;19914;-82
2023/08/04 06:54:32;;;;;;;;;;;17.50;87.00;;;;;;4990374;28;20420;-84
2023/08/04 06:56:57;;;;;;;;;;;17.50;86.40;;;;;;4990741;28;19961;-84
2023/08/04 06:59:23;;;;;;;;;;;17.50;85.80;;;;;;4990774;28;19968;-83
2023/08/04 07:01:48;;;;;;;;;;;17.60;86.30;;;;;;4986638;28;20400;-82
2023/08/04 07:04:13;;;;;;;;;;;17.70;86.00;;;;;;4987046;28;19956;-84
2023/08/04 07:06:39;;;;;;;;;;;17.70;85.10;;;;;;4989003;28;20004;-82
2023/08/04 07:09:04;;;;;;;;;;;17.80;84.70;;;;;;4990966;28;19929;-83
2023/08/04 07:11:30;;;;;;;;;;;17.80;84.90;;;;;;4984948;28;19914;-84
2023/08/04 07:13:55;;;;;;;;;;;17.70;85.60;;;;;;4984232;28;19914;-84
2023/08/04 07:16:21;;;;;;;;;;;17.60;85.50;;;;;;4984457;28;19920;-82
2023/08/04 07:18:47;;;;;;;;;;;17.60;85.00;;;;;;4989921;28;19925;-82
2023/08/04 07:21:13;;;;;;;;;;;17.60;85.40;;;;;;4984547;28;19960;-83
2023/08/04 07:23:39;;;;;;;;;;;17.60;85.30;;;;;;4981308;28;19921;-83
2023/08/04 07:26:05;;;;;;;;;;;17.50;85.70;;;;;;4984960;28;19917;-82
2023/08/04 07:28:31;;;;;;;;;;;17.50;85.60;;;;;;4986642;28;20301;-82
2023/08/04 07:30:59;;;;;;;;;;;17.50;86.30;;;;;;4984017;28;19953;-81
2023/08/04 07:33:25;;;;;;;;;;;17.60;86.10;;;;;;4986021;28;20013;-82
2023/08/04 07:35:57;;;;;;;;;;;17.80;85.80;;;;;;4986884;28;19944;-84
2023/08/04 07:38:23;;;;;;;;;;;18.10;83.60;;;;;;4993201;28;20297;-83
2023/08/04 07:40:49;;;;;;;;;;;18.20;83.50;;;;;;4990440;28;19913;-84
2023/08/04 07:43:15;;;;;;;;;;;18.10;83.00;;;;;;4987285;28;20369;-84
2023/08/04 07:45:41;;;;;;;;;;;18.10;82.90;;;;;;4987938;28;19913;-83
2023/08/04 07:48:06;;;;;;;;;;;18.10;82.80;;;;;;4984644;28;19977;-84
2023/08/04 07:50:34;;;;;;;;;;;18.10;83.10;;;;;;4989210;28;19918;-83
2023/08/04 07:53:00;;;;;;;;;;;18.10;82.80;;;;;;4985432;28;19993;-84
2023/08/04 07:55:25;;;;;;;;;;;18.20;81.40;;;;;;4992741;28;19918;-84
2023/08/04 07:57:51;;;;;;;;;;;18.10;81.70;;;;;;4989124;28;19917;-84
2023/08/04 08:00:16;;;;;;;;;;;18.20;81.60;;;;;;4992881;28;19983;-87
2023/08/04 08:02:41;;;;;;;;;;;18.20;82.00;;;;;;4990617;28;19920;-84
2023/08/04 08:05:08;;;;;;;;;;;18.30;82.10;;;;;;4992788;28;19910;-84
2023/08/04 08:07:34;;;;;;;;;;;18.40;81.90;;;;;;4988342;28;20719;-85
2023/08/04 08:09:59;;;;;;;;;;;18.40;82.00;;;;;;4986929;28;19988;-85
2023/08/04 08:12:25;;;;;;;;;;;18.50;80.70;;;;;;4994635;28;20012;-85
2023/08/04 08:14:50;;;;;;;;;;;18.40;81.80;;;;;;4995849;28;19921;-84
2023/08/04 08:17:16;;;;;;;;;;;18.40;81.60;;;;;;4993251;28;19973;-84
2023/08/04 08:19:41;;;;;;;;;;;18.40;82.10;;;;;;4992540;28;19914;-85
2023/08/04 08:22:07;;;;;;;;;;;18.40;80.30;;;;;;4995668;28;19939;-85
2023/08/04 08:24:33;;;;;;;;;;;18.50;80.30;;;;;;4989807;28;19945;-87
2023/08/04 08:26:58;;;;;;;;;;;18.50;80.50;;;;;;4996414;28;19910;-85
2023/08/04 08:29:24;;;;;;;;;;;18.40;81.30;;;;;;4997110;28;19997;-85
2023/08/04 08:31:49;;;;;;;;;;;18.40;81.10;;;;;;4993504;28;20357;-84
2023/08/04 08:34:15;;;;;;;;;;;18.50;81.10;;;;;;4991336;28;19959;-84
2023/08/04 08:36:40;;;;;;;;;;;18.50;80.10;;;;;;4992032;28;19941;-85
2023/08/04 08:39:07;;;;;;;;;;;18.80;80.10;;;;;;4993750;28;19910;-85
2023/08/04 08:41:32;;;;;;;;;;;18.80;78.80;;;;;;4987076;28;20122;-86
2023/08/04 08:43:57;;;;;;;;;;;19.00;78.80;;;;;;4993461;28;20025;-84
2023/08/04 08:46:23;;;;;;;;;;;19.00;78.00;;;;;;4990900;28;19914;-85
2023/08/04 08:48:49;;;;;;;;;;;19.10;77.40;;;;;;4989284;28;19918;-85
2023/08/04 08:51:17;;;;;;;;;;;19.40;74.70;;;;;;4974208;28;19910;-86
2023/08/04 08:53:43;;;;;;;;;;;19.30;76.20;;;;;;4992122;28;19953;-85
2023/08/04 08:56:09;;;;;;;;;;;19.30;75.60;;;;;;4989893;28;19964;-87
2023/08/04 08:58:38;;;;;;;;;;;19.50;75.60;;;;;;4990238;28;19929;-86
2023/08/04 09:01:04;;;;;;;;;;;19.60;75.90;;;;;;4981031;28;19917;-85
2023/08/04 09:03:30;;;;;;;;;;;19.60;76.20;;;;;;4992184;28;19914;-87
2023/08/04 09:05:55;;;;;;;;;;;19.50;74.80;;;;;;4993633;28;19953;-84
2023/08/04 09:08:21;;;;;;;;;;;19.40;74.10;;;;;;4992419;28;20365;-87
2023/08/04 09:10:47;;;;;;;;;;;19.40;74.50;;;;;;4992231;28;19922;-86
2023/08/04 09:13:12;;;;;;;;;;;19.30;73.70;;;;;;4995625;28;19914;-84
2023/08/04 09:15:48;;;;;;;;;;;19.40;74.80;;;;;;4990990;28;19934;-85
2023/08/04 09:18:25;;;;;;;;;;;19.50;73.80;;;;;;4992556;28;19969;-87
2023/08/04 09:20:56;;;;;;;;;;;19.60;74.60;;;;;;4994143;28;19913;-84
2023/08/04 09:23:22;;;;;;;;;;;19.80;72.60;;;;;;4995563;28;19960;-86
2023/08/04 09:25:52;;;;;;;;;;;19.90;73.20;;;;;;4993287;28;19918;-84
2023/08/04 09:28:18;;;;;;;;;;;19.80;72.40;;;;;;4994371;28;20048;-86
2023/08/04 09:31:19;;;;;;;;;;;19.80;72.10;;;;;;4993193;28;20401;-85
2023/08/04 09:33:45;;;;;;;;;;;19.90;70.30;;;;;;4916987;29;19922;-86
2023/08/04 09:36:17;;;;;;;;;;;19.80;72.00;;;;;;4971322;28;19910;-87
2023/08/04 09:38:43;;;;;;;;;;;19.80;70.90;;;;;;4988498;28;19914;-86
2023/08/04 09:41:10;;;;;;;;;;;19.80;71.00;;;;;;4993634;28;19964;-86
2023/08/04 09:43:48;;;;;;;;;;;19.70;71.50;;;;;;4991705;28;20354;-85
2023/08/04 09:46:14;;;;;;;;;;;19.80;72.90;;;;;;4989639;28;20516;-86
2023/08/04 09:48:39;;;;;;;;;;;20.00;71.20;;;;;;4991754;28;19997;-86
2023/08/04 09:51:07;;;;;;;;;;;20.10;71.70;;;;;;4991810;28;19914;-86
2023/08/04 09:53:36;;;;;;;;;;;20.20;70.40;;;;;;4986940;28;19921;-85
2023/08/04 09:56:01;;;;;;;;;;;20.20;69.70;;;;;;4991627;28;19918;-86
2023/08/04 09:58:27;;;;;;;;;;;20.20;71.90;;;;;;4992570;28;20414;-85
2023/08/04 10:00:52;;;;;;;;;;;20.20;71.90;;;;;;4991203;28;19918;-85
2023/08/04 10:03:18;;;;;;;;;;;20.20;70.50;;;;;;4992601;28;19922;-86
2023/08/04 10:05:44;;;;;;;;;;;20.20;71.50;;;;;;4997483;28;19976;-86
2023/08/04 10:08:10;;;;;;;;;;;20.20;71.00;;;;;;4988230;28;19922;-84
2023/08/04 10:10:35;;;;;;;;;;;20.20;72.00;;;;;;4985807;28;19961;-87
2023/08/04 10:13:01;;;;;;;;;;;20.30;71.60;;;;;;4986301;28;19926;-86
2023/08/04 10:15:27;;;;;;;;;;;20.40;69.70;;;;;;4983102;28;19918;-86
2023/08/04 10:17:56;;;;;;;;;;;20.50;68.20;;;;;;4986358;28;19920;-84
2023/08/04 10:20:23;;;;;;;;;;;20.60;67.60;;;;;;4994757;28;19910;-84
2023/08/04 10:22:49;;;;;;;;;;;20.50;68.20;;;;;;4993066;28;19917;-83
2023/08/04 10:25:15;;;;;;;;;;;20.50;69.20;;;;;;4999573;28;19914;-86
2023/08/04 10:27:50;;;;;;;;;;;20.60;68.50;;;;;;4998290;28;19921;-84
2023/08/04 10:30:16;;;;;;;;;;;20.60;67.40;;;;;;4990458;28;19914;-86
2023/08/04 10:32:42;;;;;;;;;;;20.60;68.50;;;;;;4991898;28;20308;-84
2023/08/04 10:35:16;;;;;;;;;;;20.60;68.20;;;;;;4993602;28;19913;-85
2023/08/04 10:37:48;;;;;;;;;;;20.60;66.80;;;;;;4990943;28;19921;-85
2023/08/04 10:40:25;;;;;;;;;;;20.50;68.00;;;;;;4991715;28;20450;-84
2023/08/04 10:43:03;;;;;;;;;;;20.50;66.00;;;;;;4991407;28;19961;-86
2023/08/04 10:45:48;;;;;;;;;;;20.70;65.40;;;;;;4992272;28;20364;-85
2023/08/04 10:48:14;;;;;;;;;;;20.90;65.70;;;;;;4994351;28;19920;-84
2023/08/04 10:50:39;;;;;;;;;;;21.10;65.40;;;;;;4993213;28;20001;-84
2023/08/04 10:53:05;;;;;;;;;;;21.10;65.80;;;;;;4992479;28;20059;-86
2023/08/04 10:55:32;;;;;;;;;;;21.00;64.60;;;;;;4993758;28;19910;-86
2023/08/04 10:57:58;;;;;;;;;;;21.10;64.00;;;;;;4990167;28;19922;-85
2023/08/04 11:00:23;;;;;;;;;;;21.10;64.30;;;;;;4994589;28;19978;-85
2023/08/04 11:02:49;;;;;;;;;;;21.10;64.70;;;;;;4992344;28;19945;-86
2023/08/04 11:05:14;;;;;;;;;;;21.10;65.80;;;;;;4992063;28;20389;-88
2023/08/04 11:07:46;;;;;;;;;;;21.10;65.50;;;;;;4991604;28;19913;-86
2023/08/04 11:10:12;;;;;;;;;;;21.10;64.80;;;;;;4994097;28;19960;-85
2023/08/04 11:12:38;;;;;;;;;;;21.30;63.90;;;;;;4998030;28;20009;-83
2023/08/04 11:15:03;;;;;;;;;;;21.60;63.10;;;;;;4996001;28;19914;-86
2023/08/04 11:17:29;;;;;;;;;;;21.70;62.90;;;;;;4992589;28;19930;-85
2023/08/04 11:19:54;;;;;;;;;;;21.80;62.60;;;;;;4994359;28;19914;-88
2023/08/04 11:22:21;;;;;;;;;;;21.90;63.70;;;;;;4994812;28;19910;-86
2023/08/04 11:24:46;;;;;;;;;;;21.80;62.60;;;;;;4994145;28;20556;-86
2023/08/04 11:27:13;;;;;;;;;;;21.80;61.80;;;;;;4992152;28;19918;-85
2023/08/04 11:29:39;;;;;;;;;;;21.80;61.10;;;;;;4983855;28;20014;-84
2023/08/04 11:32:15;;;;;;;;;;;21.80;63.30;;;;;;4990539;28;19945;-87
2023/08/04 11:34:41;;;;;;;;;;;21.70;62.60;;;;;;4991166;28;19914;-86
2023/08/04 11:37:07;;;;;;;;;;;21.70;62.60;;;;;;4992922;28;19914;-87
2023/08/04 11:39:40;;;;;;;;;;;21.70;62.90;;;;;;4993552;28;20554;-89
2023/08/04 11:42:09;;;;;;;;;;;21.70;62.20;;;;;;4994286;28;19997;-84
2023/08/04 11:44:35;;;;;;;;;;;21.60;60.80;;;;;;4994600;28;19913;-84
2023/08/04 11:47:10;;;;;;;;;;;21.60;58.90;;;;;;4992119;28;20348;-85
2023/08/04 11:49:42;;;;;;;;;;;21.60;61.10;;;;;;4994571;28;20373;-85
2023/08/04 11:52:11;;;;;;;;;;;21.60;61.30;;;;;;4999367;28;19914;-85
2023/08/04 11:54:50;;;;;;;;;;;21.70;59.40;;;;;;4991743;28;19914;-86
2023/08/04 11:57:17;;;;;;;;;;;21.80;60.40;;;;;;4993628;28;19957;-83
2023/08/04 11:59:46;;;;;;;;;;;22.00;60.70;;;;;;4997230;28;19910;-83
2023/08/04 12:02:12;;;;;;;;;;;22.00;61.60;;;;;;4996871;28;19914;-82
2023/08/04 12:04:37;;;;;;;;;;;22.00;61.10;;;;;;4995143;28;20164;-85
2023/08/04 12:07:04;;;;;;;;;;;21.90;60.50;;;;;;4991958;28;19918;-84
2023/08/04 12:09:30;;;;;;;;;;;21.70;61.30;;;;;;4995469;28;20017;-83
2023/08/04 12:11:56;;;;;;;;;;;21.70;61.00;;;;;;4995154;28;19972;-85
2023/08/04 12:14:22;;;;;;;;;;;21.50;61.20;;;;;;4994070;28;19972;-84
2023/08/04 12:16:53;;;;;;;;;;;21.20;63.00;;;;;;4991255;28;19921;-83
2023/08/04 12:19:19;;;;;;;;;;;21.00;62.90;;;;;;4996128;28;19910;-84
2023/08/04 12:21:45;;;;;;;;;;;20.90;63.70;;;;;;4992558;28;19910;-85
2023/08/04 12:24:11;;;;;;;;;;;20.70;62.90;;;;;;4988661;28;19922;-83
2023/08/04 12:26:36;;;;;;;;;;;20.90;60.90;;;;;;4991293;28;19992;-83
2023/08/04 12:29:02;;;;;;;;;;;21.00;60.30;;;;;;4993652;28;19921;-84
2023/08/04 12:31:27;;;;;;;;;;;21.00;60.60;;;;;;4990615;28;20593;-84
2023/08/04 12:33:53;;;;;;;;;;;21.00;61.10;;;;;;4992791;28;20380;-84
2023/08/04 12:36:18;;;;;;;;;;;21.00;62.40;;;;;;4991215;28;19914;-83
2023/08/04 12:38:43;;;;;;;;;;;21.20;62.70;;;;;;4991067;28;19914;-84
2023/08/04 12:41:10;;;;;;;;;;;21.30;59.60;;;;;;4994521;28;20399;-85
2023/08/04 12:43:35;;;;;;;;;;;21.40;60.10;;;;;;4994374;28;19922;-83
2023/08/04 12:46:01;;;;;;;;;;;21.50;60.90;;;;;;4992948;28;19920;-84
2023/08/04 12:48:27;;;;;;;;;;;21.60;59.70;;;;;;4991244;28;20551;-83
2023/08/04 12:50:52;;;;;;;;;;;21.80;61.20;;;;;;4994454;28;19918;-84
2023/08/04 12:53:17;;;;;;;;;;;22.10;60.50;;;;;;4994936;28;19913;-83
2023/08/04 12:55:43;;;;;;;;;;;22.20;59.80;;;;;;4994415;28;19914;-84
2023/08/04 12:58:08;;;;;;;;;;;22.30;60.00;;;;;;4996040;28;20005;-85
2023/08/04 13:00:34;;;;;;;;;;;22.50;60.00;;;;;;5000681;28;20381;-84
2023/08/04 13:02:59;;;;;;;;;;;22.10;62.00;;;;;;4998411;28;19948;-84
2023/08/04 13:05:25;;;;;;;;;;;21.90;63.00;;;;;;5005098;28;19960;-86
2023/08/04 13:07:50;;;;;;;;;;;21.90;63.70;;;;;;4998132;28;19980;-85
2023/08/04 13:10:16;;;;;;;;;;;21.60;63.60;;;;;;4999926;28;19920;-84
2023/08/04 13:12:41;;;;;;;;;;;21.50;64.40;;;;;;4993245;28;19921;-83
2023/08/04 13:15:07;;;;;;;;;;;21.30;65.20;;;;;;4992157;28;20057;-85
2023/08/04 13:17:32;;;;;;;;;;;21.30;66.00;;;;;;4995070;28;20022;-84
2023/08/04 13:19:58;;;;;;;;;;;21.20;65.20;;;;;;4996872;28;20254;-83
2023/08/04 13:22:23;;;;;;;;;;;21.20;66.20;;;;;;5001080;28;19921;-84
2023/08/04 13:24:49;;;;;;;;;;;21.20;67.40;;;;;;4996099;28;19910;-85
2023/08/04 13:27:15;;;;;;;;;;;21.20;65.00;;;;;;4997582;28;19910;-84
2023/08/04 13:29:40;;;;;;;;;;;21.20;64.90;;;;;;4999883;28;19914;-85
2023/08/04 13:32:06;;;;;;;;;;;21.00;66.30;;;;;;4997760;28;20431;-83
2023/08/04 13:34:32;;;;;;;;;;;21.00;65.70;;;;;;4998612;28;19914;-84
2023/08/04 13:36:57;;;;;;;;;;;20.90;66.60;;;;;;4998176;28;19924;-83
2023/08/04 13:39:23;;;;;;;;;;;20.80;66.40;;;;;;4999890;28;20250;-83
2023/08/04 13:41:48;;;;;;;;;;;20.80;66.50;;;;;;5000447;28;19913;-83
2023/08/04 13:44:14;;;;;;;;;;;20.80;66.50;;;;;;5002413;28;19909;-83
2023/08/04 13:46:39;;;;;;;;;;;21.00;65.00;;;;;;4999132;28;19918;-83
2023/08/04 13:49:05;;;;;;;;;;;20.90;65.70;;;;;;5000651;28;19921;-83
2023/08/04 13:51:30;;;;;;;;;;;21.10;65.80;;;;;;4995521;28;19918;-83
2023/08/04 13:53:56;;;;;;;;;;;21.10;65.00;;;;;;4995172;28;20024;-84
2023/08/04 13:56:21;;;;;;;;;;;21.40;62.30;;;;;;5000043;28;19918;-84
2023/08/04 13:58:51;;;;;;;;;;;21.50;62.10;;;;;;4995614;28;19918;-83
2023/08/04 14:01:16;;;;;;;;;;;21.60;61.80;;;;;;4990772;28;20468;-83
2023/08/04 14:03:42;;;;;;;;;;;21.50;62.50;;;;;;4992700;28;19957;-83
2023/08/04 14:06:07;;;;;;;;;;;21.40;62.50;;;;;;4993633;28;19913;-83
2023/08/04 14:08:33;;;;;;;;;;;21.20;63.20;;;;;;4996721;28;19945;-82
2023/08/04 14:10:58;;;;;;;;;;;21.10;62.50;;;;;;4995031;28;19918;-82
2023/08/04 14:13:24;;;;;;;;;;;21.10;61.50;;;;;;4994497;28;19921;-83